This is the latest recevied weather packets stored in our database for station/object Dunnningn. If no packets are shown the sender has not sent any weather packets the latest 10 day(s).
| Time | Temp. | Humidity | Pressure | Rain* | Wind** | Luminosity | Snow |
|---|---|---|---|---|---|---|---|
| 1777195933 | 15.56° C | 39% | 1022.9 hPa | 0 mm | - | - | - |
| 1777194132 | 15° C | 38% | 1023 hPa | 0 mm | - | - | - |
| 1777192331 | 13.89° C | 42% | 1022.9 hPa | 0 mm | - | - | - |
| 1777190531 | 13.33° C | 39% | 1022.6 hPa | 0 mm | - | - | - |
| 1777188731 | 11.67° C | 55% | 1022.7 hPa | 0 mm | - | - | - |
| 1777186931 | 9.44° C | 56% | 1022.7 hPa | 0 mm | - | - | - |
| 1777185136 | 2.78° C | 80% | 1022.9 hPa | 0 mm | - | - | - |
| 1777183335 | 1.11° C | 83% | 1022.8 hPa | 0 mm | - | - | - |
| 1777181532 | 0° C | 82% | 1022.6 hPa | 0 mm | - | - | - |
| 1777179731 | 0° C | 80% | 1022.2 hPa | 0 mm | - | - | - |
| 1777177931 | 0° C | 80% | 1022.1 hPa | 0 mm | - | - | - |
| 1777176142 | 0.56° C | 79% | 1022 hPa | 0 mm | - | - | - |
| 1777174331 | 1.11° C | 77% | 1021.6 hPa | 0 mm | - | - | - |
| 1777172531 | 1.11° C | 76% | 1021.3 hPa | 0 mm | - | - | - |
| 1777170731 | 1.67° C | 76% | 1021.1 hPa | 0 mm | - | - | - |
| 1777168932 | 2.22° C | 76% | 1021 hPa | 0 mm | - | - | - |
| 1777167132 | 2.22° C | 73% | 1021 hPa | 0 mm | - | - | - |
| 1777165333 | 2.78° C | 72% | 1020.8 hPa | 0 mm | - | - | - |
| 1777163529 | 3.33° C | 70% | 1020.6 hPa | 0 mm | - | - | - |
| 1777161729 | 3.89° C | 68% | 1020.4 hPa | 0 mm | - | - | - |
| 1777159929 | 4.44° C | 66% | 1020.1 hPa | 0 mm | - | - | - |
| 1777158129 | 5° C | 65% | 1020.1 hPa | 0 mm | - | - | - |
| 1777156330 | 5.56° C | 63% | 1019.9 hPa | 0 mm | - | - | - |
| 1777152732 | 7.78° C | 60% | 1019.9 hPa | 0 mm | - | - | - |
| 1777150929 | 8.33° C | 54% | 1019.9 hPa | 0 mm | - | - | - |
* Rain since midnight (hover to see other rain measurements)
** Current wind speed in m/s (hover to see current wind gust speed)